Latest Weather Observations for Geraldton Airport

IDW60801

Issued at 3:13 am WST Thursday 3 September 2026 (issued every 10 minutes, with the page automatically refreshed every 10 minutes)

About weather observations | Map of weather stations | Latest weather observations for WA | Other Formats
Station Details ID: 008315 Name: GERALDTON AIRPORT Lat: -28.80 Lon: 114.70 Height: 29.7 m
Data from the previous 72 hours. | See also: Recent months at Geraldton Airport
Date/Time
WST
Temp
°C
App
Temp
°C
Dew
Point
°C
Rel
Hum
%
Delta-T
°C
Wind Press
QNH
hPa
Press
MSL
hPa
Rain since
9am
mm
Dir  Spd
km/h
Gust
km/h
Spd
kts
Gust
kts
03/03:00am 7.4 4.1 6.3 93 0.5 NNE 13 15 7 8 1021.3 1021.2 0.0
03/02:30am 7.5 4.2 6.4 93 0.5 NE 13 15 7 8 1021.5 1021.4 0.0
03/02:00am 7.7 4.8 6.5 92 0.5 NE 11 13 6 7 1021.6 1021.5 0.0
03/01:30am 7.9 5.0 6.5 91 0.6 NNE 11 15 6 8 1021.8 1021.7 0.0
03/01:00am 8.1 4.9 6.9 92 0.6 NNE 13 13 7 7 1021.9 1021.8 0.0
03/12:30am 8.4 5.2 7.0 91 0.7 NNE 13 15 7 8 1022.0 1021.9 0.0
03/12:00am 8.4 6.5 6.5 88 0.9 NE 6 9 3 5 1022.2 1022.1 0.0
 
Date/Time
WST
Temp
°C
App
Temp
°C
Dew
Point
°C
Rel
Hum
%
Delta-T
°C
Wind Press
QNH
hPa
Press
MSL
hPa
Rain since
9am
mm
Dir  Spd
km/h
Gust
km/h
Spd
kts
Gust
kts
02/11:30pm 9.9 8.3 8.0 88 0.9 ENE 6 7 3 4 1022.3 1022.2 0.0
02/11:00pm 9.7 7.9 8.0 89 0.8 ENE 7 7 4 4 1022.5 1022.4 0.0
02/10:30pm 10.1 8.6 8.4 89 0.8 E 6 7 3 4 1022.8 1022.7 0.0
02/10:00pm 11.4 9.9 9.3 87 1.0 S 7 11 4 6 1022.9 1022.8 0.0
02/09:30pm 12.3 11.2 10.0 86 1.2 ENE 6 7 3 4 1023.0 1022.9 0.0
02/09:00pm 13.4 13.5 10.2 81 1.7 CALM 0 0 0 0 1023.0 1022.9 0.0
02/08:30pm 13.1 13.2 10.3 83 1.5 CALM 0 0 0 0 1023.0 1022.9 0.0
02/08:00pm 13.3 12.9 9.9 80 1.7 ESE 2 6 1 3 1022.9 1022.8 0.0
02/07:30pm 12.8 11.3 9.3 79 1.8 ESE 7 9 4 5 1022.7 1022.6 0.0
02/07:00pm 13.0 10.9 8.3 73 2.3 S 9 13 5 7 1022.5 1022.4 0.0
02/06:30pm 13.3 10.9 8.8 74 2.3 S 11 13 6 7 1022.4 1022.3 0.0
02/06:00pm 13.8 11.6 9.3 74 2.3 S 11 13 6 7 1022.3 1022.2 0.0
02/05:30pm 14.7 12.5 9.5 71 2.7 S 11 13 6 7 1022.1 1022.0 0.0
02/05:00pm 16.9 13.5 9.3 61 3.9 S 17 20 9 11 1022.0 1021.9 0.0
02/04:30pm 17.7 13.7 10.3 62 3.9 SSW 22 32 12 17 1021.9 1021.8 0.0
02/04:00pm 18.0 13.6 8.8 55 4.8 SSW 22 32 12 17 1021.7 1021.6 0.0
02/03:30pm 19.0 15.5 10.3 57 4.7 SSW 19 32 10 17 1021.8 1021.7 0.0
02/03:00pm 17.6 13.8 9.8 60 4.1 SSW 20 28 11 15 1022.0 1021.9 0.0
02/02:30pm 18.4 14.7 10.0 58 4.5 SSW 20 28 11 15 1022.2 1022.1 0.0
02/02:00pm 18.4 14.9 11.0 62 4.0 S 20 28 11 15 1022.3 1022.2 0.0
02/01:30pm 17.7 14.3 9.3 58 4.4 S 17 24 9 13 1022.6 1022.5 0.0
02/01:00pm 18.7 15.0 10.0 57 4.6 SSW 20 30 11 16 1022.8 1022.7 0.0
02/12:30pm 19.0 16.4 10.8 59 4.4 S 15 20 8 11 1023.3 1023.2 0.0
02/12:00pm 18.0 14.4 9.9 59 4.3 SSW 19 28 10 15 1023.7 1023.6 0.0
02/11:30am 18.9 16.1 11.5 62 4.1 SW 17 24 9 13 1024.0 1023.9 0.0
02/11:00am 17.3 14.8 8.4 56 4.5 SSW 11 15 6 8 1024.1 1024.0 0.0
02/10:30am 16.8 15.2 8.8 59 4.1 WSW 7 15 4 8 1024.2 1024.1 0.0
02/10:00am 16.9 15.4 10.7 67 3.3 SE 9 13 5 7 1024.4 1024.3 0.0
02/09:30am 16.4 15.6 11.8 74 2.5 NE 7 11 4 6 1024.5 1024.4 0.0
02/09:00am 15.0 14.1 11.2 78 2.0 NE 7 9 4 5 1024.5 1024.4 0.2
02/08:30am 14.0 12.5 10.6 80 1.8 NNE 9 11 5 6 1024.2 1024.1 0.2
02/08:00am 13.1 11.8 11.3 89 0.9 NE 9 11 5 6 1024.0 1023.9 0.2
02/07:30am 12.1 9.5 10.7 91 0.7 NNE 15 19 8 10 1023.6 1023.5 0.2
02/07:00am 11.2 8.8 10.0 92 0.6 NNE 13 17 7 9 1023.4 1023.3 0.2
02/06:30am 11.6 9.7 10.5 93 0.6 NNE 11 15 6 8 1023.1 1023.0 0.2
02/06:00am 11.7 10.2 10.6 93 0.6 NNE 9 11 5 6 1023.0 1022.9 0.2
02/05:30am 11.7 10.3 10.8 94 0.5 NNE 9 15 5 8 1023.0 1022.9 0.2
02/05:00am 11.9 10.5 11.0 94 0.5 NE 9 11 5 6 1022.8 1022.7 0.2
02/04:30am 11.8 10.8 10.9 94 0.5 ENE 7 11 4 6 1022.8 1022.7 0.2
02/04:00am 11.6 10.2 10.8 95 0.4 NNE 9 11 5 6 1022.8 1022.7 0.2
02/03:30am 11.7 10.7 10.9 95 0.4 NE 7 9 4 5 1022.8 1022.7 0.2
02/03:00am 11.2 9.7 10.4 95 0.4 NNE 9 11 5 6 1022.8 1022.7 0.2
02/02:30am 11.0 9.4 10.2 95 0.4 NNE 9 11 5 6 1023.0 1022.9 0.2
02/02:00am 10.0 7.8 9.2 95 0.4 NNE 11 11 6 6 1023.1 1023.0 0.2
02/01:30am 9.5 7.5 8.6 94 0.4 NE 9 11 5 6 1023.2 1023.1 0.2
02/01:00am 9.6 8.2 8.7 94 0.4 NE 6 7 3 4 1023.5 1023.4 0.2
02/12:30am 10.4 10.3 9.3 93 0.5 CALM 0 0 0 0 1023.7 1023.6 0.2
02/12:00am 11.0 9.9 9.8 92 0.6 SE 6 7 3 4 1023.8 1023.7 0.2
 
Date/Time
WST
Temp
°C
App
Temp
°C
Dew
Point
°C
Rel
Hum
%
Delta-T
°C
Wind Press
QNH
hPa
Press
MSL
hPa
Rain since
9am
mm
Dir  Spd
km/h
Gust
km/h
Spd
kts
Gust
kts
01/11:30pm 11.3 11.0 10.0 92 0.7 SSE 2 7 1 4 1023.9 1023.8 0.2
01/11:00pm 11.4 10.3 9.8 90 0.8 SSE 6 7 3 4 1024.0 1023.9 0.2
01/10:30pm 12.3 11.3 11.0 92 0.7 ENE 7 7 4 4 1024.2 1024.1 0.2
01/10:00pm 12.0 10.9 10.6 91 0.7 E 7 9 4 5 1024.2 1024.1 0.2
01/09:30pm 13.2 12.5 11.3 88 1.0 SSE 6 7 3 4 1024.2 1024.1 0.2
01/09:00pm 13.3 12.5 11.0 86 1.2 ESE 6 9 3 5 1024.1 1024.0 0.2
01/08:30pm 14.0 12.8 11.7 86 1.2 ESE 9 11 5 6 1024.0 1023.9 0.2
01/08:00pm 14.3 13.7 11.6 84 1.4 SSE 6 6 3 3 1023.9 1023.8 0.2
01/07:30pm 14.7 13.6 12.0 84 1.5 SE 9 11 5 6 1023.6 1023.5 0.2
01/07:00pm 15.0 13.6 12.3 84 1.5 SSE 11 13 6 7 1023.3 1023.2 0.2
01/06:30pm 16.0 15.1 12.6 80 1.9 S 9 11 5 6 1023.1 1023.0 0.2
01/06:00pm 16.9 15.3 12.8 77 2.3 S 13 19 7 10 1022.9 1022.8 0.2
01/05:30pm 17.9 14.6 12.8 72 2.9 S 22 28 12 15 1022.6 1022.5 0.2
01/05:00pm 18.6 15.8 13.2 71 3.0 S 20 28 11 15 1022.6 1022.5 0.2
01/04:30pm 19.2 15.7 13.4 69 3.3 S 24 30 13 16 1022.4 1022.3 0.2
01/04:00pm 19.7 17.0 13.6 68 3.5 S 20 26 11 14 1022.3 1022.2 0.2
01/03:30pm 20.1 17.4 13.6 66 3.7 SSE 20 26 11 14 1022.1 1022.0 0.2
01/03:00pm 20.5 18.1 14.4 68 3.5 S 20 26 11 14 1022.3 1022.2 0.2
01/02:30pm 20.5 17.8 14.6 69 3.5 S 22 30 12 16 1022.3 1022.2 0.2
01/02:00pm 19.9 16.7 13.1 65 3.8 S 22 30 12 16 1022.5 1022.4 0.2
01/01:30pm 20.1 17.4 13.6 66 3.7 S 20 26 11 14 1022.8 1022.7 0.2
01/01:00pm 20.2 18.2 13.9 67 3.6 S 17 24 9 13 1023.0 1022.9 0.2
01/12:30pm 19.8 17.7 13.7 68 3.5 S 17 26 9 14 1023.2 1023.1 0.0
01/12:00pm 19.6 17.1 14.2 71 3.1 SSE 20 26 11 14 1023.5 1023.4 0.0
01/11:30am 20.2 18.8 15.6 75 2.7 SE 17 24 9 13 1023.9 1023.8 0.0
01/11:00am 19.5 17.5 15.4 77 2.4 SSE 20 26 11 14 1023.9 1023.8 0.0
01/10:36am 18.2 15.5 14.5 79 2.1 SSE 22 28 12 15 1023.9 1023.8 0.0
01/10:30am 17.8 15.1 14.7 82 1.8 SE 22 28 12 15 1024.0 1023.9 0.0
01/10:00am 16.9 13.6 14.0 83 1.6 SE 24 30 13 16 1024.0 1023.9 0.0
01/09:30am 16.0 13.2 14.4 90 0.9 SSE 22 28 12 15 1024.1 1024.0 0.0
01/09:00am 16.2 13.0 15.4 95 0.5 SSE 26 33 14 18 1023.9 1023.8 1.8
01/08:50am 15.9 13.1 15.3 96 0.3 SE 24 32 13 17 1024.0 1023.9 1.8
01/08:30am 15.4 14.1 14.8 96 0.3 S 15 20 8 11 1023.9 1023.8 1.8
01/08:11am 15.1 15.2 14.5 96 0.3 NE 7 9 4 5 1023.6 1023.5 1.8
01/08:10am 15.0 15.1 14.4 96 0.3 NE 7 9 4 5 1023.6 1023.5 1.8
01/08:04am 15.0 15.3 14.4 96 0.3 NE 6 9 3 5 1023.6 1023.5 1.8
01/08:00am 14.9 15.1 14.3 96 0.3 NE 6 7 3 4 1023.5 1023.4 1.8
01/07:51am 14.4 14.3 13.8 96 0.3 NE 7 9 4 5 1023.4 1023.3 1.8
01/07:30am 13.7 13.3 13.1 96 0.3 NNE 7 11 4 6 1023.1 1023.0 1.8
01/07:00am 12.9 11.5 12.3 96 0.3 N 11 13 6 7 1022.8 1022.7 1.8
01/06:39am 13.0 11.7 12.4 96 0.3 NNE 11 15 6 8 1022.8 1022.7 1.8
01/06:30am 13.2 11.9 12.6 96 0.3 NE 11 13 6 7 1022.8 1022.7 1.8
01/06:18am 13.0 11.7 12.4 96 0.3 NE 11 13 6 7 1022.7 1022.6 1.8
01/06:05am 13.0 11.7 12.4 96 0.3 NNE 11 13 6 7 1022.7 1022.6 1.6
01/06:02am 13.0 11.7 12.4 96 0.3 NNE 11 15 6 8 1022.7 1022.6 1.6
01/06:00am 13.0 11.3 12.4 96 0.3 NNE 13 17 7 9 1022.7 1022.6 1.6
01/05:33am 12.4 10.8 11.6 95 0.4 NE 11 13 6 7 1022.6 1022.5 1.0
01/05:30am 12.3 11.1 11.5 95 0.4 ENE 9 13 5 7 1022.6 1022.5 0.8
01/05:18am 12.4 10.8 11.6 95 0.4 NNE 11 13 6 7 1022.5 1022.4 0.2
01/05:00am 12.3 9.9 11.5 95 0.4 NNE 15 17 8 9 1022.2 1022.1 0.0
01/04:30am 12.2 9.8 11.4 95 0.4 NNE 15 19 8 10 1022.1 1022.0 0.0
01/04:00am 12.0 9.5 11.2 95 0.4 NNE 15 19 8 10 1022.1 1022.0 0.0
01/03:30am 11.6 9.0 10.8 95 0.4 NNE 15 17 8 9 1022.1 1022.0 0.0
01/03:00am 12.0 9.2 11.2 95 0.4 NNE 17 20 9 11 1022.1 1022.0 0.0
01/02:30am 12.0 9.9 11.2 95 0.4 NNE 13 15 7 8 1022.1 1022.0 0.0
01/02:00am 12.1 10.4 11.3 95 0.4 NNE 11 15 6 8 1022.4 1022.3 0.0
01/01:30am 12.9 11.1 12.1 95 0.4 NNE 13 15 7 8 1022.5 1022.4 0.0
01/01:00am 12.8 11.0 12.0 95 0.4 NNE 13 13 7 7 1022.7 1022.6 0.0
01/12:30am 12.7 10.8 11.9 95 0.4 NNE 13 15 7 8 1022.8 1022.7 0.0
01/12:00am 12.9 11.1 12.0 94 0.5 NNE 13 13 7 7 1022.9 1022.8 0.0
 
Date/Time
WST
Temp
°C
App
Temp
°C
Dew
Point
°C
Rel
Hum
%
Delta-T
°C
Wind Press
QNH
hPa
Press
MSL
hPa
Rain since
9am
mm
Dir  Spd
km/h
Gust
km/h
Spd
kts
Gust
kts
31/11:30pm 13.5 12.6 12.6 94 0.5 NNE 9 13 5 7 1023.2 1023.1 0.0
31/11:00pm 13.3 11.9 12.2 93 0.6 NNE 11 13 6 7 1023.3 1023.2 0.0
31/10:30pm 13.5 12.8 12.1 91 0.8 NE 7 9 4 5 1023.5 1023.4 0.0
31/10:00pm 14.3 15.1 12.5 89 1.0 CALM 0 6 0 3 1023.5 1023.4 0.0
31/09:30pm 15.9 17.2 14.1 89 1.0 CALM 0 6 0 3 1023.4 1023.3 0.0
31/09:00pm 16.9 18.5 14.9 88 1.2 CALM 0 0 0 0 1023.3 1023.2 0.0
31/08:30pm 17.1 17.9 14.9 87 1.3 ESE 4 6 2 3 1023.1 1023.0 0.0
31/08:00pm 17.1 17.6 14.9 87 1.3 SE 6 7 3 4 1022.8 1022.7 0.0
31/07:30pm 17.1 17.4 14.6 85 1.4 SSE 6 6 3 3 1022.5 1022.4 0.0
31/07:00pm 17.4 17.7 14.5 83 1.7 SSW 6 7 3 4 1022.3 1022.2 0.0
31/06:30pm 17.4 17.3 13.9 80 2.0 SW 7 9 4 5 1022.1 1022.0 0.0
31/06:00pm 17.9 17.9 14.2 79 2.1 SW 7 11 4 6 1021.9 1021.8 0.0
31/05:30pm 19.0 18.3 14.3 74 2.7 WSW 11 15 6 8 1021.7 1021.6 0.0
31/05:00pm 20.1 19.0 14.2 69 3.4 WSW 13 17 7 9 1021.3 1021.2 0.0
31/04:30pm 20.7 19.3 14.4 67 3.7 WSW 15 20 8 11 1021.2 1021.1 0.0
31/04:00pm 20.7 18.8 14.1 66 3.8 W 17 24 9 13 1020.9 1020.9 0.0
31/03:30pm 20.9 19.0 14.1 65 4.0 WSW 17 22 9 12 1020.9 1020.9 0.0
31/03:00pm 21.4 19.7 14.8 66 3.9 W 17 22 9 12 1020.8 1020.8 0.0
31/02:30pm 21.2 19.5 13.6 62 4.4 WSW 15 22 8 12 1020.5 1020.5 0.0
31/02:00pm 21.1 18.9 13.3 61 4.5 WSW 17 24 9 13 1020.5 1020.5 0.0
31/01:30pm 21.3 19.8 13.2 60 4.6 WSW 13 19 7 10 1020.5 1020.5 0.0
31/01:00pm 21.2 18.9 12.9 59 4.7 W 17 20 9 11 1020.6 1020.6 0.0
31/12:30pm 20.8 19.1 13.5 63 4.2 W 15 20 8 11 1020.9 1020.9 0.0
31/12:00pm 21.2 19.8 15.5 70 3.4 W 17 22 9 12 1021.1 1021.0 0.0
31/11:30am 21.6 21.9 15.0 66 3.9 NW 7 11 4 6 1021.1 1021.0 0.0
31/11:00am 20.3 19.6 14.2 68 3.5 WNW 11 17 6 9 1021.4 1021.3 0.0
31/10:30am 19.2 18.4 14.0 72 3.0 WSW 11 17 6 9 1021.4 1021.3 0.0
31/10:00am 17.8 18.0 14.3 80 2.0 WNW 6 15 3 8 1021.5 1021.4 0.0
31/09:30am 18.0 19.0 16.9 93 0.7 NNE 7 11 4 6 1021.5 1021.4 0.0
31/09:00am 16.4 16.5 15.6 95 0.5 NNE 9 11 5 6 1021.5 1021.4 0.2
31/08:30am 15.2 14.6 14.6 96 0.3 NNE 11 17 6 9 1021.1 1021.0 0.2
31/08:00am 13.9 12.5 13.3 96 0.3 NNE 13 17 7 9 1020.9 1020.9 0.2
31/07:30am 13.0 10.9 12.5 97 0.3 NNE 15 19 8 10 1020.7 1020.7 0.2
31/07:00am 12.3 10.0 11.8 97 0.3 NNE 15 19 8 10 1020.3 1020.3 0.2
31/06:30am 12.1 9.8 11.6 97 0.3 NNE 15 17 8 9 1020.0 1020.0 0.0
31/06:26am 12.0 10.0 11.5 97 0.3 NNE 13 17 7 9 1020.0 1020.0 0.0
31/06:12am 12.0 10.0 11.5 97 0.3 NNE 13 17 7 9 1019.8 1019.8 0.0
31/06:00am 11.9 9.5 11.4 97 0.3 NNE 15 17 8 9 1019.8 1019.8 0.0
31/05:58am 11.7 9.2 11.2 97 0.3 NNE 15 19 8 10 1019.8 1019.8 0.0
31/05:46am 11.5 9.0 11.0 97 0.3 NNE 15 17 8 9 1019.7 1019.7 0.0
31/05:30am 11.3 8.7 10.7 96 0.3 NNE 15 19 8 10 1019.6 1019.6 0.0
31/05:17am 11.1 8.4 10.5 96 0.3 NNE 15 19 8 10 1019.5 1019.5 0.0
31/05:15am 11.1 8.4 10.5 96 0.3 NNE 15 19 8 10 1019.5 1019.5 0.0
31/05:00am 10.9 8.2 10.3 96 0.3 NNE 15 19 8 10 1019.6 1019.6 0.0
31/04:30am 10.9 8.6 10.3 96 0.3 NNE 13 15 7 8 1019.5 1019.5 0.0
31/04:29am 10.9 8.6 10.3 96 0.3 NNE 13 15 7 8 1019.5 1019.5 0.0
31/04:00am 11.0 8.3 10.4 96 0.3 NNE 15 19 8 10 1019.5 1019.5 0.0
31/03:30am 11.0 8.7 10.4 96 0.3 NNE 13 15 7 8 1019.5 1019.5 0.0

Other formats

Comma delimited format used in spreadsheet applications
http://www.bom.gov.au/fwo/IDW60801/IDW60801.94403.axf

JavaScript Object Notation format (JSON) in row-major order
http://www.bom.gov.au/fwo/IDW60801/IDW60801.94403.json

Data quality

Most of these data are generated automatically and are frequently updated. Quality checks on data are not normally performed. It is possible for incorrect values to appear. Refer to information at About Latest Weather Observations and please check the disclaimer before using these data.